createdAt,value
2019-02-24T00:02:18.573Z,-6.03
2019-02-24T00:04:49.941Z,-6.03
2019-02-24T00:07:21.372Z,-5.97
2019-02-24T00:09:53.046Z,-6.08
2019-02-24T00:12:24.524Z,-6.10
2019-02-24T00:14:55.925Z,-6.16
2019-02-24T00:17:27.422Z,-6.14
2019-02-24T00:19:58.821Z,-6.12
2019-02-24T00:22:30.231Z,-6.09
2019-02-24T00:25:01.606Z,-6.15
2019-02-24T00:27:34.323Z,-6.19
2019-02-24T00:30:07.362Z,-6.16
2019-02-24T00:32:38.757Z,-6.14
2019-02-24T00:35:10.235Z,-6.10
2019-02-24T00:37:41.671Z,-6.29
2019-02-24T00:40:13.108Z,-6.06
2019-02-24T00:42:44.819Z,-6.07
2019-02-24T00:45:16.234Z,-6.11
2019-02-24T00:47:47.642Z,-6.19
2019-02-24T00:50:19.987Z,-6.21
2019-02-24T00:52:51.301Z,-6.09
2019-02-24T00:55:22.780Z,-6.21
2019-02-24T00:57:54.254Z,-6.18
2019-02-24T01:00:25.655Z,-6.24
2019-02-24T01:02:57.059Z,-6.20
2019-02-24T01:05:28.465Z,-6.15
2019-02-24T01:07:59.876Z,-6.21
2019-02-24T01:10:31.292Z,-6.21
2019-02-24T01:13:02.672Z,-6.21
2019-02-24T01:15:34.047Z,-6.20
2019-02-24T01:18:05.462Z,-6.14
2019-02-24T01:20:36.747Z,-6.14
2019-02-24T01:23:08.102Z,-6.17
2019-02-24T01:25:39.507Z,-6.35
2019-02-24T01:28:11.012Z,-6.29
2019-02-24T01:30:42.525Z,-6.28
2019-02-24T01:33:14.088Z,-6.32
2019-02-24T01:35:45.604Z,-6.46
2019-02-24T01:38:16.979Z,-6.47
2019-02-24T01:40:48.346Z,-6.45
2019-02-24T01:43:19.751Z,-6.44
2019-02-24T01:45:51.122Z,-6.54
2019-02-24T01:48:22.465Z,-6.33
2019-02-24T01:50:53.971Z,-6.41
2019-02-24T01:53:25.357Z,-6.44
2019-02-24T01:55:56.793Z,-6.50
2019-02-24T01:58:34.832Z,-6.50
2019-02-24T02:01:01.212Z,-6.58
2019-02-24T02:03:32.650Z,-6.52
2019-02-24T02:06:04.057Z,-6.62
2019-02-24T02:08:35.387Z,-6.72
2019-02-24T02:11:06.699Z,-6.73
2019-02-24T02:13:38.167Z,-6.68
2019-02-24T02:16:09.567Z,-6.71
2019-02-24T02:18:40.975Z,-6.61
2019-02-24T02:21:12.352Z,-6.71
2019-02-24T02:23:43.727Z,-6.70
2019-02-24T02:26:15.152Z,-6.76
2019-02-24T02:28:46.544Z,-6.62
2019-02-24T02:31:18.026Z,-6.70
2019-02-24T02:33:49.350Z,-6.68
2019-02-24T02:36:20.824Z,-6.68
2019-02-24T02:38:53.152Z,-6.66
2019-02-24T02:41:24.550Z,-6.81
2019-02-24T02:43:55.918Z,-6.84
2019-02-24T02:46:27.558Z,-6.86
2019-02-24T02:48:58.919Z,-6.99
2019-02-24T02:51:30.371Z,-6.93
2019-02-24T02:54:02.063Z,-6.87
2019-02-24T02:56:33.436Z,-6.78
2019-02-24T02:59:04.770Z,-6.86
2019-02-24T03:01:36.196Z,-6.83
2019-02-24T03:04:07.579Z,-6.90
2019-02-24T03:06:59.059Z,-6.92
2019-02-24T03:09:30.467Z,-6.91
2019-02-24T03:12:01.998Z,-6.98
2019-02-24T03:14:33.425Z,-7.04
2019-02-24T03:17:04.730Z,-6.95
2019-02-24T03:19:37.152Z,-6.98
2019-02-24T03:22:08.541Z,-7.05
2019-02-24T03:24:39.908Z,-7.12
2019-02-24T03:27:11.306Z,-7.18
2019-02-24T03:29:43.630Z,-7.14
2019-02-24T03:32:15.267Z,-7.22
2019-02-24T03:34:46.632Z,-7.12
2019-02-24T03:37:17.986Z,-7.13
2019-02-24T03:39:49.339Z,-7.21
2019-02-24T03:42:20.899Z,-7.19
2019-02-24T03:44:53.280Z,-7.12
2019-02-24T03:47:25.705Z,-7.20
2019-02-24T03:49:57.166Z,-7.12
2019-02-24T03:52:28.538Z,-7.25
2019-02-24T03:54:59.949Z,-7.19
2019-02-24T03:57:31.333Z,-7.25
2019-02-24T04:00:02.687Z,-7.30
2019-02-24T04:02:34.105Z,-7.24
2019-02-24T04:05:06.227Z,-7.32
2019-02-24T04:07:37.592Z,-7.22
2019-02-24T04:10:08.987Z,-7.15
2019-02-24T04:12:41.542Z,-7.21
2019-02-24T04:15:12.980Z,-7.16
2019-02-24T04:17:44.724Z,-7.25
2019-02-24T04:20:16.101Z,-7.18
2019-02-24T04:22:47.505Z,-7.17
2019-02-24T04:25:18.918Z,-7.26
2019-02-24T04:27:50.247Z,-7.13
2019-02-24T04:30:21.599Z,-7.07
2019-02-24T04:32:53.285Z,-7.16
2019-02-24T04:35:24.702Z,-7.27
2019-02-24T04:37:56.106Z,-7.21
2019-02-24T04:40:27.516Z,-7.20
2019-02-24T04:42:58.922Z,-7.16
2019-02-24T04:45:30.340Z,-7.14
2019-02-24T04:48:01.752Z,-7.06
2019-02-24T04:50:33.117Z,-7.14
2019-02-24T04:53:05.536Z,-7.13
2019-02-24T04:55:36.914Z,-7.04
2019-02-24T04:58:08.333Z,-7.06
2019-02-24T05:00:39.768Z,-7.10
2019-02-24T05:03:11.130Z,-6.97
2019-02-24T05:05:42.534Z,-6.87
2019-02-24T05:08:13.928Z,-6.94
2019-02-24T05:10:45.338Z,-6.76
2019-02-24T05:13:16.764Z,-6.96
2019-02-24T05:15:48.178Z,-6.63
2019-02-24T05:18:19.538Z,-6.68
2019-02-24T05:20:50.940Z,-6.65
2019-02-24T05:23:22.324Z,-6.46
2019-02-24T05:25:54.118Z,-6.19
2019-02-24T05:28:25.397Z,-6.30
2019-02-24T05:30:56.763Z,-6.11
2019-02-24T05:33:29.182Z,-6.02
2019-02-24T05:36:00.641Z,-5.88
2019-02-24T05:38:31.941Z,-5.74
2019-02-24T05:41:03.320Z,-5.46
2019-02-24T05:43:34.666Z,-5.15
2019-02-24T05:46:06.014Z,-4.81
2019-02-24T05:48:37.323Z,-4.15
2019-02-24T05:51:08.750Z,-4.04
2019-02-24T05:53:40.160Z,-4.00
2019-02-24T05:56:11.523Z,-3.75
2019-02-24T05:58:42.941Z,-3.88
2019-02-24T06:01:14.397Z,-3.56
2019-02-24T06:03:45.759Z,-3.38
2019-02-24T06:06:17.140Z,-3.67
2019-02-24T06:08:48.545Z,-2.88
2019-02-24T06:11:20.351Z,-2.49
2019-02-24T06:13:52.262Z,-2.51
2019-02-24T06:16:23.741Z,-2.06
2019-02-24T06:18:55.132Z,-1.67
2019-02-24T06:21:26.461Z,-1.85
2019-02-24T06:23:57.873Z,-2.26
2019-02-24T06:26:30.208Z,-2.73
2019-02-24T06:29:02.384Z,-2.06
2019-02-24T06:31:33.732Z,-1.99
2019-02-24T06:34:05.711Z,-0.98
2019-02-24T06:36:37.516Z,0.27
2019-02-24T06:39:08.749Z,0.30
2019-02-24T06:41:40.260Z,0.51
2019-02-24T06:44:11.631Z,0.91
2019-02-24T06:46:43.027Z,1.18
2019-02-24T06:49:14.468Z,3.14
2019-02-24T06:51:45.759Z,3.07
2019-02-24T06:54:17.260Z,2.44
2019-02-24T06:56:48.579Z,2.48
2019-02-24T06:59:19.915Z,2.55
2019-02-24T07:01:51.276Z,2.58
2019-02-24T07:04:22.810Z,2.81
2019-02-24T07:06:54.186Z,2.49
2019-02-24T07:09:25.568Z,1.26
2019-02-24T07:11:56.966Z,0.54
2019-02-24T07:14:29.599Z,-0.22
2019-02-24T07:17:01.044Z,0.19
2019-02-24T07:19:32.452Z,-0.34
2019-02-24T07:22:03.806Z,-0.39
2019-02-24T07:24:35.344Z,-0.43
2019-02-24T07:27:06.722Z,0.88
2019-02-24T07:29:37.990Z,0.88
2019-02-24T07:32:09.302Z,0.95
2019-02-24T07:34:42.252Z,1.68
2019-02-24T07:37:13.514Z,1.95
2019-02-24T07:39:44.864Z,3.26
2019-02-24T07:42:16.080Z,2.95
2019-02-24T07:44:47.710Z,3.26
2019-02-24T07:47:19.023Z,4.16
2019-02-24T07:49:51.626Z,4.02
2019-02-24T07:52:22.944Z,4.35
2019-02-24T07:54:54.243Z,4.08
2019-02-24T07:57:25.530Z,5.00
2019-02-24T07:59:56.777Z,5.61
2019-02-24T08:02:28.102Z,5.06
2019-02-24T08:04:59.451Z,5.41
2019-02-24T08:07:30.747Z,5.74
2019-02-24T08:10:02.123Z,5.62
2019-02-24T08:12:33.452Z,5.25
2019-02-24T08:15:06.330Z,5.38
2019-02-24T08:17:37.048Z,5.83
2019-02-24T08:20:09.299Z,6.93
2019-02-24T08:22:42.205Z,5.83
2019-02-24T08:25:13.402Z,5.36
2019-02-24T08:27:44.768Z,5.38
2019-02-24T08:30:16.096Z,5.19
2019-02-24T08:32:47.324Z,4.92
2019-02-24T08:35:18.773Z,4.55
2019-02-24T08:37:50.087Z,3.00
2019-02-24T08:40:21.594Z,2.92
2019-02-24T08:42:52.928Z,3.27
2019-02-24T08:45:24.280Z,3.35
2019-02-24T08:47:55.677Z,4.87
2019-02-24T08:50:26.867Z,3.91
2019-02-24T08:52:58.569Z,4.31
2019-02-24T08:55:30.021Z,4.04
2019-02-24T08:58:04.646Z,4.28
2019-02-24T09:00:36.826Z,3.29
2019-02-24T09:03:08.140Z,3.87
2019-02-24T09:05:39.465Z,3.66
2019-02-24T09:08:10.708Z,3.68
2019-02-24T09:10:42.167Z,3.90
2019-02-24T09:13:13.531Z,3.49
2019-02-24T09:15:44.883Z,3.98
2019-02-24T09:18:16.178Z,4.08
2019-02-24T09:20:47.520Z,3.88
2019-02-24T09:23:18.794Z,3.82
2019-02-24T09:25:50.160Z,3.73
2019-02-24T09:28:21.479Z,4.05
2019-02-24T09:31:00.435Z,4.19
2019-02-24T09:33:26.103Z,4.68
2019-02-24T09:35:57.805Z,4.97
2019-02-24T09:38:29.008Z,5.26
2019-02-24T09:41:01.293Z,4.19
2019-02-24T09:43:32.621Z,4.64
2019-02-24T09:46:03.887Z,4.90
2019-02-24T09:48:35.230Z,4.62
2019-02-24T09:51:06.600Z,4.79
2019-02-24T09:53:37.823Z,4.86
2019-02-24T09:56:09.153Z,4.63
2019-02-24T09:58:40.421Z,4.69
2019-02-24T10:01:11.771Z,5.06
2019-02-24T10:03:43.042Z,4.20
2019-02-24T10:06:15.826Z,4.25
2019-02-24T10:08:49.656Z,4.69
2019-02-24T10:11:20.983Z,4.74
2019-02-24T10:13:52.203Z,5.59
2019-02-24T10:16:23.432Z,4.99
2019-02-24T10:18:54.855Z,5.59
2019-02-24T10:21:26.199Z,5.93
2019-02-24T10:23:57.495Z,5.92
2019-02-24T10:26:28.981Z,5.95
2019-02-24T10:29:00.298Z,6.02
2019-02-24T10:31:31.566Z,6.02
2019-02-24T10:34:02.764Z,4.63
2019-02-24T10:36:34.217Z,5.04
2019-02-24T10:39:05.798Z,4.83
2019-02-24T10:41:38.145Z,4.64
2019-02-24T10:44:09.481Z,4.87
2019-02-24T10:46:40.716Z,4.89
2019-02-24T10:49:12.137Z,5.65
2019-02-24T10:51:43.359Z,5.71
2019-02-24T10:54:14.776Z,5.38
2019-02-24T10:56:46.408Z,5.21
2019-02-24T10:59:17.728Z,6.03
2019-02-24T11:01:49.024Z,6.18
2019-02-24T11:04:22.790Z,6.35
2019-02-24T11:06:54.153Z,5.88
2019-02-24T11:09:25.490Z,6.00
2019-02-24T11:11:56.710Z,5.71
2019-02-24T11:14:28.124Z,5.76
2019-02-24T11:16:59.405Z,5.77
2019-02-24T11:19:30.818Z,5.94
2019-02-24T11:22:02.114Z,5.86
2019-02-24T11:24:33.378Z,6.14
2019-02-24T11:27:04.789Z,5.57
2019-02-24T11:29:36.053Z,5.97
2019-02-24T11:32:08.380Z,5.65
2019-02-24T11:34:39.663Z,6.06
2019-02-24T11:37:11.167Z,5.77
2019-02-24T11:39:42.481Z,5.83
2019-02-24T11:42:13.826Z,5.38
2019-02-24T11:44:44.975Z,5.65
2019-02-24T11:47:17.329Z,6.04
2019-02-24T11:49:51.434Z,6.11
2019-02-24T11:52:23.106Z,5.59
2019-02-24T11:54:54.385Z,5.73
2019-02-24T11:57:25.776Z,6.12
2019-02-24T11:59:57.155Z,5.36
2019-02-24T12:02:34.433Z,5.73
2019-02-24T12:05:00.679Z,5.15
2019-02-24T12:07:31.921Z,5.76
2019-02-24T12:10:04.779Z,5.99
2019-02-24T12:12:38.433Z,5.18
2019-02-24T12:15:13.988Z,5.53
2019-02-24T12:17:45.339Z,5.69
2019-02-24T12:20:16.741Z,5.41
2019-02-24T12:22:48.070Z,5.38
2019-02-24T12:25:19.978Z,5.72
2019-02-24T12:27:51.359Z,5.36
2019-02-24T12:30:22.853Z,5.15
2019-02-24T12:32:54.208Z,5.04
2019-02-24T12:35:25.496Z,4.72
2019-02-24T12:37:56.889Z,4.52
2019-02-24T12:40:29.659Z,4.57
2019-02-24T12:43:00.865Z,4.58
2019-02-24T12:45:32.211Z,4.58
2019-02-24T12:48:03.677Z,4.14
2019-02-24T12:50:35.014Z,3.99
2019-02-24T12:53:06.509Z,4.07
2019-02-24T12:55:38.259Z,4.48
2019-02-24T12:58:09.825Z,4.00
2019-02-24T13:00:41.512Z,3.72
2019-02-24T13:03:12.896Z,3.97
2019-02-24T13:05:44.119Z,3.81
2019-02-24T13:08:15.403Z,4.10
2019-02-24T13:10:46.682Z,4.20
2019-02-24T13:13:18.067Z,3.94
2019-02-24T13:15:51.300Z,4.01
2019-02-24T13:18:21.717Z,3.84
2019-02-24T13:20:52.820Z,4.00
2019-02-24T13:23:24.401Z,3.80
2019-02-24T13:25:55.721Z,3.70
2019-02-24T13:28:27.104Z,3.87
2019-02-24T13:30:58.331Z,3.63
2019-02-24T13:33:29.656Z,3.51
2019-02-24T13:36:01.078Z,3.32
2019-02-24T13:38:32.328Z,3.17
2019-02-24T13:41:03.629Z,3.09
2019-02-24T13:43:34.945Z,3.06
2019-02-24T13:46:06.227Z,3.26
2019-02-24T13:48:37.707Z,3.17
2019-02-24T13:51:09.046Z,3.23
2019-02-24T13:53:40.322Z,2.93
2019-02-24T13:56:13.272Z,3.00
2019-02-24T13:58:44.855Z,3.00
2019-02-24T14:01:16.041Z,2.78
2019-02-24T14:03:47.515Z,2.75
2019-02-24T14:06:20.362Z,2.75
2019-02-24T14:08:51.995Z,2.65
2019-02-24T14:11:23.258Z,2.71
2019-02-24T14:13:54.549Z,2.64
2019-02-24T14:16:25.906Z,2.58
2019-02-24T14:18:57.225Z,2.63
2019-02-24T14:21:28.565Z,2.60
2019-02-24T14:23:59.945Z,2.55
2019-02-24T14:26:31.228Z,2.60
2019-02-24T14:29:08.604Z,2.49
2019-02-24T14:31:41.174Z,2.40
2019-02-24T14:34:12.470Z,2.41
2019-02-24T14:36:44.024Z,2.45
2019-02-24T14:39:15.600Z,2.19
2019-02-24T14:41:46.812Z,2.22
2019-02-24T14:44:20.705Z,2.19
2019-02-24T14:46:51.939Z,2.17
2019-02-24T14:49:24.393Z,2.20
2019-02-24T14:51:55.569Z,2.33
2019-02-24T14:54:26.990Z,2.19
2019-02-24T14:56:58.786Z,2.14
2019-02-24T14:59:30.029Z,2.10
2019-02-24T15:02:01.252Z,2.00
2019-02-24T15:04:32.564Z,1.90
2019-02-24T15:07:04.022Z,1.89
2019-02-24T15:09:35.320Z,1.99
2019-02-24T15:12:06.688Z,1.85
2019-02-24T15:14:37.964Z,1.83
2019-02-24T15:17:09.191Z,1.76
2019-02-24T15:19:40.683Z,1.90
2019-02-24T15:22:11.905Z,1.91
2019-02-24T15:24:43.445Z,1.66
2019-02-24T15:27:14.682Z,1.53
2019-02-24T15:29:45.911Z,1.64
2019-02-24T15:32:17.090Z,1.64
2019-02-24T15:34:48.459Z,1.62
2019-02-24T15:37:19.981Z,1.54
2019-02-24T15:39:51.301Z,1.45
2019-02-24T15:42:22.615Z,1.46
2019-02-24T15:44:53.942Z,1.38
2019-02-24T15:47:25.368Z,1.45
2019-02-24T15:49:56.725Z,1.39
2019-02-24T15:52:28.101Z,1.39
2019-02-24T15:54:59.605Z,1.32
2019-02-24T15:57:30.972Z,1.29
2019-02-24T16:00:02.443Z,1.30
2019-02-24T16:02:35.415Z,1.33
2019-02-24T16:05:08.765Z,1.32
2019-02-24T16:07:40.110Z,1.25
2019-02-24T16:10:14.466Z,1.34
2019-02-24T16:12:45.730Z,1.21
2019-02-24T16:15:22.352Z,1.21
2019-02-24T16:17:53.558Z,1.25
2019-02-24T16:20:27.388Z,1.17
2019-02-24T16:22:58.903Z,1.19
2019-02-24T16:25:30.279Z,1.27
2019-02-24T16:28:03.315Z,1.21
2019-02-24T16:30:34.648Z,1.18
2019-02-24T16:46:06.403Z,1.20
2019-02-24T16:48:39.494Z,1.09
2019-02-24T16:51:11.051Z,0.97
2019-02-24T16:53:42.456Z,1.06
2019-02-24T16:56:14.002Z,1.02
2019-02-24T16:58:45.414Z,1.11
2019-02-24T17:01:16.973Z,1.10
2019-02-24T17:03:48.421Z,1.15
2019-02-24T17:06:19.836Z,0.93
2019-02-24T17:08:52.233Z,0.95
2019-02-24T17:11:24.494Z,0.88
2019-02-24T17:13:56.051Z,0.92
2019-02-24T17:16:27.524Z,0.93
2019-02-24T17:19:00.282Z,0.83
2019-02-24T17:21:31.667Z,0.82
2019-02-24T17:24:02.954Z,0.98
2019-02-24T17:26:34.270Z,0.95
2019-02-24T17:29:05.528Z,1.06
2019-02-24T17:31:37.908Z,1.06
2019-02-24T17:34:09.191Z,0.95
2019-02-24T17:36:40.504Z,1.05
2019-02-24T17:39:11.935Z,1.05
2019-02-24T17:41:43.639Z,1.01
2019-02-24T17:44:15.116Z,1.00
2019-02-24T17:46:46.544Z,1.06
2019-02-24T17:49:18.161Z,1.12
2019-02-24T17:51:49.535Z,1.30
2019-02-24T17:54:22.123Z,1.30
2019-02-24T17:56:53.536Z,1.28
2019-02-24T17:59:25.052Z,1.28
2019-02-24T18:01:56.531Z,1.35
2019-02-24T18:04:27.933Z,1.40
2019-02-24T18:06:59.296Z,1.53
2019-02-24T18:09:30.643Z,1.53
2019-02-24T18:12:01.960Z,1.38
2019-02-24T18:14:33.266Z,1.34
2019-02-24T18:17:04.473Z,1.44
2019-02-24T18:19:35.839Z,1.46
2019-02-24T18:22:07.153Z,1.39
2019-02-24T18:24:38.455Z,1.27
2019-02-24T18:27:09.810Z,1.50
2019-02-24T18:29:41.091Z,1.50
2019-02-24T18:32:12.436Z,1.44
2019-02-24T18:34:44.621Z,1.50
2019-02-24T18:37:16.224Z,1.32
2019-02-24T18:39:47.565Z,1.32
2019-02-24T18:42:18.861Z,1.40
2019-02-24T18:44:50.359Z,1.49
2019-02-24T18:47:21.771Z,1.50
2019-02-24T18:49:53.164Z,1.52
2019-02-24T18:52:25.802Z,1.60
2019-02-24T18:55:00.334Z,1.60
2019-02-24T18:57:31.648Z,1.66
2019-02-24T19:00:02.941Z,1.57
2019-02-24T19:02:35.757Z,1.57
2019-02-24T19:05:08.285Z,1.58
2019-02-24T19:07:39.526Z,1.47
2019-02-24T19:10:22.124Z,1.58
2019-02-24T19:12:53.435Z,1.48
2019-02-24T19:15:25.218Z,1.52
2019-02-24T19:17:56.556Z,1.61
2019-02-24T19:20:27.832Z,1.53
2019-02-24T19:22:59.247Z,1.66
2019-02-24T19:25:30.658Z,1.55
2019-02-24T19:28:02.123Z,1.70
2019-02-24T19:30:33.574Z,1.55
2019-02-24T19:33:04.933Z,1.54
2019-02-24T19:35:36.386Z,1.54
2019-02-24T19:38:07.933Z,1.51
2019-02-24T19:40:39.320Z,1.63
2019-02-24T19:43:10.720Z,1.38
2019-02-24T19:45:42.141Z,1.50
2019-02-24T19:48:13.549Z,1.46
2019-02-24T19:50:44.987Z,1.51
2019-02-24T19:53:16.374Z,1.59
2019-02-24T19:55:47.736Z,1.61
2019-02-24T19:58:19.124Z,1.62
2019-02-24T20:00:55.216Z,1.52
2019-02-24T20:03:26.683Z,1.35
2019-02-24T20:05:58.341Z,1.38
2019-02-24T20:08:32.671Z,1.43
2019-02-24T20:11:04.062Z,1.36
2019-02-24T20:13:35.514Z,1.43
2019-02-24T20:16:06.889Z,1.37
2019-02-24T20:18:38.269Z,1.38
2019-02-24T20:21:11.202Z,1.45
2019-02-24T20:23:43.197Z,1.42
2019-02-24T20:26:15.579Z,1.32
2019-02-24T20:28:46.993Z,1.25
2019-02-24T20:31:18.441Z,1.35
2019-02-24T20:33:51.277Z,1.35
2019-02-24T20:36:24.103Z,1.37
2019-02-24T20:38:56.117Z,1.38
2019-02-24T20:41:27.519Z,1.30
2019-02-24T20:43:58.920Z,1.68
2019-02-24T20:46:30.318Z,1.45
2019-02-24T20:49:01.794Z,1.49
2019-02-24T20:51:33.231Z,1.33
2019-02-24T20:54:04.667Z,1.41
2019-02-24T20:56:36.080Z,1.40
2019-02-24T20:59:07.460Z,1.31
2019-02-24T21:01:38.900Z,1.32
2019-02-24T21:04:10.382Z,1.46
2019-02-24T21:06:41.826Z,1.40
2019-02-24T21:09:13.257Z,1.40
2019-02-24T21:11:44.703Z,1.40
2019-02-24T21:14:16.121Z,1.36
2019-02-24T21:16:47.440Z,1.35
2019-02-24T21:19:18.856Z,1.43
2019-02-24T21:21:50.285Z,1.40
2019-02-24T21:24:22.692Z,1.52
2019-02-24T21:26:54.091Z,1.40
2019-02-24T21:29:25.383Z,1.34
2019-02-24T21:31:56.775Z,1.25
2019-02-24T21:34:28.159Z,1.26
2019-02-24T21:36:59.545Z,1.35
2019-02-24T21:39:31.045Z,1.38
2019-02-24T21:42:02.551Z,1.40
2019-02-24T21:44:33.939Z,1.43
2019-02-24T21:47:05.344Z,1.41
2019-02-24T21:49:36.729Z,1.43
2019-02-24T21:52:08.110Z,1.36
2019-02-24T21:54:40.549Z,1.41
2019-02-24T21:57:11.907Z,1.37
2019-02-24T21:59:43.320Z,1.44
2019-02-24T22:02:14.725Z,1.38
2019-02-24T22:04:46.134Z,1.38
2019-02-24T22:07:17.511Z,1.34
2019-02-24T22:09:48.881Z,1.42
2019-02-24T22:12:20.298Z,1.37
2019-02-24T22:14:51.652Z,1.38
2019-02-24T22:17:23.075Z,1.37
2019-02-24T22:19:54.514Z,1.48
2019-02-24T22:22:26.031Z,1.38
2019-02-24T22:24:57.511Z,1.36
2019-02-24T22:27:28.914Z,1.43
2019-02-24T22:30:00.327Z,1.50
2019-02-24T22:32:31.698Z,1.49
2019-02-24T22:35:03.044Z,1.46
2019-02-24T22:37:34.418Z,1.55
2019-02-24T22:40:13.216Z,1.26
2019-02-24T22:42:45.103Z,1.35
2019-02-24T22:45:22.286Z,1.40
2019-02-24T22:47:53.613Z,1.15
2019-02-24T22:50:24.883Z,1.40
2019-02-24T22:52:56.132Z,1.40
2019-02-24T22:55:27.415Z,1.22
2019-02-24T22:57:58.685Z,1.35
2019-02-24T23:00:45.644Z,1.29
2019-02-24T23:03:18.414Z,1.17
2019-02-24T23:05:49.696Z,1.17
2019-02-24T23:08:20.998Z,1.22
2019-02-24T23:10:52.586Z,0.94
2019-02-24T23:13:23.784Z,0.94
2019-02-24T23:15:55.047Z,0.95
2019-02-24T23:18:26.310Z,1.08
2019-02-24T23:20:57.581Z,1.19
2019-02-24T23:23:28.948Z,1.16
2019-02-24T23:26:00.246Z,1.20
2019-02-24T23:28:31.522Z,1.25
2019-02-24T23:31:02.669Z,1.06
2019-02-24T23:33:33.997Z,1.07
2019-02-24T23:36:05.222Z,1.07
2019-02-24T23:38:36.502Z,1.20
2019-02-24T23:41:07.773Z,1.15
2019-02-24T23:43:39.161Z,1.01
2019-02-24T23:46:10.418Z,1.00
2019-02-24T23:48:42.224Z,1.23
2019-02-24T23:51:13.523Z,0.97
2019-02-24T23:53:44.751Z,1.17
2019-02-24T23:56:16.029Z,1.10
2019-02-24T23:58:47.324Z,0.99
